sensor_id;sensor_type;location;lat;lon;timestamp;P1;durP1;ratioP1;P2;durP2;ratioP2
13404;SDS011;6773;51.192;7.024;2023-09-19T00:02:00;3.10;;;1.80;;
13404;SDS011;6773;51.192;7.024;2023-09-19T00:04:30;6.57;;;2.30;;
13404;SDS011;6773;51.192;7.024;2023-09-19T00:06:57;4.55;;;2.15;;
13404;SDS011;6773;51.192;7.024;2023-09-19T00:09:23;6.35;;;2.42;;
13404;SDS011;6773;51.192;7.024;2023-09-19T00:11:52;3.97;;;2.10;;
13404;SDS011;6773;51.192;7.024;2023-09-19T00:14:18;5.55;;;2.20;;
13404;SDS011;6773;51.192;7.024;2023-09-19T00:16:44;4.35;;;1.75;;
13404;SDS011;6773;51.192;7.024;2023-09-19T00:19:14;7.20;;;2.00;;
13404;SDS011;6773;51.192;7.024;2023-09-19T00:21:41;5.88;;;2.00;;
13404;SDS011;6773;51.192;7.024;2023-09-19T00:24:08;7.57;;;2.17;;
13404;SDS011;6773;51.192;7.024;2023-09-19T00:26:34;9.50;;;2.30;;
13404;SDS011;6773;51.192;7.024;2023-09-19T00:29:01;4.88;;;2.08;;
13404;SDS011;6773;51.192;7.024;2023-09-19T00:31:33;3.78;;;2.15;;
13404;SDS011;6773;51.192;7.024;2023-09-19T00:34:01;5.05;;;1.90;;
13404;SDS011;6773;51.192;7.024;2023-09-19T00:36:32;6.32;;;2.60;;
13404;SDS011;6773;51.192;7.024;2023-09-19T00:38:58;4.95;;;2.38;;
13404;SDS011;6773;51.192;7.024;2023-09-19T00:41:24;6.78;;;2.00;;
13404;SDS011;6773;51.192;7.024;2023-09-19T00:43:50;3.95;;;1.92;;
13404;SDS011;6773;51.192;7.024;2023-09-19T00:46:16;6.35;;;2.03;;
13404;SDS011;6773;51.192;7.024;2023-09-19T00:48:42;3.67;;;1.70;;
13404;SDS011;6773;51.192;7.024;2023-09-19T00:51:08;11.82;;;2.47;;
13404;SDS011;6773;51.192;7.024;2023-09-19T00:53:34;5.65;;;1.98;;
13404;SDS011;6773;51.192;7.024;2023-09-19T00:56:00;3.58;;;1.98;;
13404;SDS011;6773;51.192;7.024;2023-09-19T00:58:33;5.88;;;2.00;;
13404;SDS011;6773;51.192;7.024;2023-09-19T01:01:00;3.83;;;2.08;;
13404;SDS011;6773;51.192;7.024;2023-09-19T01:03:26;5.25;;;2.10;;
13404;SDS011;6773;51.192;7.024;2023-09-19T01:05:52;7.85;;;2.33;;
13404;SDS011;6773;51.192;7.024;2023-09-19T01:08:19;7.38;;;2.17;;
13404;SDS011;6773;51.192;7.024;2023-09-19T01:22:21;6.20;;;1.80;;
13404;SDS011;6773;51.192;7.024;2023-09-19T01:25:15;4.82;;;1.95;;
13404;SDS011;6773;51.192;7.024;2023-09-19T01:31:01;3.75;;;1.90;;
13404;SDS011;6773;51.192;7.024;2023-09-19T01:33:28;9.25;;;2.10;;
13404;SDS011;6773;51.192;7.024;2023-09-19T01:36:16;3.90;;;1.58;;
13404;SDS011;6773;51.192;7.024;2023-09-19T01:38:42;4.72;;;2.28;;
13404;SDS011;6773;51.192;7.024;2023-09-19T01:41:10;5.47;;;2.20;;
13404;SDS011;6773;51.192;7.024;2023-09-19T01:43:41;4.65;;;2.00;;
13404;SDS011;6773;51.192;7.024;2023-09-19T01:46:12;4.57;;;2.10;;
13404;SDS011;6773;51.192;7.024;2023-09-19T01:51:43;5.68;;;2.13;;
13404;SDS011;6773;51.192;7.024;2023-09-19T01:54:18;3.22;;;2.10;;
13404;SDS011;6773;51.192;7.024;2023-09-19T01:57:08;7.13;;;2.10;;
13404;SDS011;6773;51.192;7.024;2023-09-19T01:59:43;4.30;;;1.73;;
13404;SDS011;6773;51.192;7.024;2023-09-19T02:02:36;8.25;;;2.35;;
13404;SDS011;6773;51.192;7.024;2023-09-19T02:05:04;8.73;;;2.30;;
13404;SDS011;6773;51.192;7.024;2023-09-19T02:07:31;7.57;;;2.72;;
13404;SDS011;6773;51.192;7.024;2023-09-19T02:09:57;4.22;;;2.00;;
13404;SDS011;6773;51.192;7.024;2023-09-19T02:12:25;4.03;;;2.10;;
13404;SDS011;6773;51.192;7.024;2023-09-19T02:14:51;9.15;;;2.25;;
13404;SDS011;6773;51.192;7.024;2023-09-19T02:17:17;8.35;;;2.40;;
13404;SDS011;6773;51.192;7.024;2023-09-19T02:19:43;6.03;;;2.50;;
13404;SDS011;6773;51.192;7.024;2023-09-19T02:22:08;8.95;;;2.30;;
13404;SDS011;6773;51.192;7.024;2023-09-19T02:24:35;6.15;;;2.22;;
13404;SDS011;6773;51.192;7.024;2023-09-19T02:27:04;4.15;;;2.13;;
13404;SDS011;6773;51.192;7.024;2023-09-19T02:29:30;6.75;;;2.38;;
13404;SDS011;6773;51.192;7.024;2023-09-19T02:31:56;8.95;;;2.58;;
13404;SDS011;6773;51.192;7.024;2023-09-19T02:34:22;8.20;;;2.65;;
13404;SDS011;6773;51.192;7.024;2023-09-19T02:36:48;8.13;;;2.17;;
13404;SDS011;6773;51.192;7.024;2023-09-19T02:39:14;6.93;;;2.22;;
13404;SDS011;6773;51.192;7.024;2023-09-19T02:41:40;6.65;;;2.30;;
13404;SDS011;6773;51.192;7.024;2023-09-19T02:44:06;5.18;;;2.13;;
13404;SDS011;6773;51.192;7.024;2023-09-19T02:46:33;10.40;;;2.60;;
13404;SDS011;6773;51.192;7.024;2023-09-19T02:49:01;5.10;;;2.42;;
13404;SDS011;6773;51.192;7.024;2023-09-19T02:51:28;6.30;;;2.60;;
13404;SDS011;6773;51.192;7.024;2023-09-19T02:53:53;5.47;;;2.22;;
13404;SDS011;6773;51.192;7.024;2023-09-19T02:56:19;6.80;;;2.47;;
13404;SDS011;6773;51.192;7.024;2023-09-19T02:58:45;4.72;;;2.30;;
13404;SDS011;6773;51.192;7.024;2023-09-19T03:01:13;5.97;;;1.98;;
13404;SDS011;6773;51.192;7.024;2023-09-19T03:03:39;8.35;;;2.47;;
13404;SDS011;6773;51.192;7.024;2023-09-19T03:06:06;5.45;;;2.13;;
13404;SDS011;6773;51.192;7.024;2023-09-19T03:08:34;7.22;;;2.10;;
13404;SDS011;6773;51.192;7.024;2023-09-19T03:11:03;4.47;;;1.75;;
13404;SDS011;6773;51.192;7.024;2023-09-19T03:13:31;8.70;;;2.53;;
13404;SDS011;6773;51.192;7.024;2023-09-19T03:15:57;3.70;;;2.28;;
13404;SDS011;6773;51.192;7.024;2023-09-19T03:18:23;4.28;;;1.95;;
13404;SDS011;6773;51.192;7.024;2023-09-19T03:20:54;5.75;;;2.50;;
13404;SDS011;6773;51.192;7.024;2023-09-19T03:23:20;5.70;;;2.03;;
13404;SDS011;6773;51.192;7.024;2023-09-19T03:25:45;6.53;;;2.30;;
13404;SDS011;6773;51.192;7.024;2023-09-19T03:28:12;3.67;;;2.03;;
13404;SDS011;6773;51.192;7.024;2023-09-19T03:30:39;4.63;;;2.30;;
13404;SDS011;6773;51.192;7.024;2023-09-19T03:33:05;7.13;;;2.25;;
13404;SDS011;6773;51.192;7.024;2023-09-19T03:35:31;6.43;;;2.88;;
13404;SDS011;6773;51.192;7.024;2023-09-19T03:37:57;4.28;;;2.10;;
13404;SDS011;6773;51.192;7.024;2023-09-19T03:40:23;4.25;;;1.90;;
13404;SDS011;6773;51.192;7.024;2023-09-19T03:42:50;4.40;;;2.00;;
13404;SDS011;6773;51.192;7.024;2023-09-19T03:45:16;6.93;;;2.78;;
13404;SDS011;6773;51.192;7.024;2023-09-19T03:47:43;4.10;;;1.80;;
13404;SDS011;6773;51.192;7.024;2023-09-19T03:50:09;6.38;;;2.22;;
13404;SDS011;6773;51.192;7.024;2023-09-19T03:52:40;10.88;;;2.25;;
13404;SDS011;6773;51.192;7.024;2023-09-19T03:55:06;7.03;;;2.38;;
13404;SDS011;6773;51.192;7.024;2023-09-19T03:57:32;5.45;;;2.13;;
13404;SDS011;6773;51.192;7.024;2023-09-19T04:00:01;8.27;;;2.30;;
13404;SDS011;6773;51.192;7.024;2023-09-19T04:02:27;6.45;;;1.98;;
13404;SDS011;6773;51.192;7.024;2023-09-19T04:04:58;5.60;;;1.80;;
13404;SDS011;6773;51.192;7.024;2023-09-19T04:07:24;7.93;;;2.00;;
13404;SDS011;6773;51.192;7.024;2023-09-19T04:09:51;4.50;;;1.70;;
13404;SDS011;6773;51.192;7.024;2023-09-19T04:12:18;5.68;;;2.42;;
13404;SDS011;6773;51.192;7.024;2023-09-19T04:14:44;10.95;;;2.70;;
13404;SDS011;6773;51.192;7.024;2023-09-19T04:17:10;5.53;;;2.35;;
13404;SDS011;6773;51.192;7.024;2023-09-19T04:19:36;6.75;;;2.15;;
13404;SDS011;6773;51.192;7.024;2023-09-19T04:22:02;5.55;;;1.98;;
13404;SDS011;6773;51.192;7.024;2023-09-19T04:24:29;4.00;;;1.65;;
13404;SDS011;6773;51.192;7.024;2023-09-19T04:26:55;9.35;;;2.28;;
13404;SDS011;6773;51.192;7.024;2023-09-19T04:29:23;5.13;;;2.03;;
13404;SDS011;6773;51.192;7.024;2023-09-19T04:31:51;5.57;;;2.20;;
13404;SDS011;6773;51.192;7.024;2023-09-19T04:34:17;9.55;;;2.50;;
13404;SDS011;6773;51.192;7.024;2023-09-19T04:36:43;5.38;;;1.90;;
13404;SDS011;6773;51.192;7.024;2023-09-19T04:39:09;6.05;;;2.17;;
13404;SDS011;6773;51.192;7.024;2023-09-19T04:41:37;5.90;;;1.98;;
13404;SDS011;6773;51.192;7.024;2023-09-19T04:44:06;3.92;;;1.73;;
13404;SDS011;6773;51.192;7.024;2023-09-19T04:46:33;5.97;;;2.20;;
13404;SDS011;6773;51.192;7.024;2023-09-19T04:48:59;5.93;;;1.98;;
13404;SDS011;6773;51.192;7.024;2023-09-19T04:51:25;6.38;;;2.20;;
13404;SDS011;6773;51.192;7.024;2023-09-19T04:53:54;9.45;;;2.53;;
13404;SDS011;6773;51.192;7.024;2023-09-19T04:56:20;4.53;;;2.08;;
13404;SDS011;6773;51.192;7.024;2023-09-19T04:58:46;3.08;;;1.75;;
13404;SDS011;6773;51.192;7.024;2023-09-19T05:01:12;5.47;;;1.88;;
13404;SDS011;6773;51.192;7.024;2023-09-19T05:03:40;7.93;;;2.28;;
13404;SDS011;6773;51.192;7.024;2023-09-19T05:06:05;6.30;;;2.13;;
13404;SDS011;6773;51.192;7.024;2023-09-19T05:08:31;6.90;;;2.28;;
13404;SDS011;6773;51.192;7.024;2023-09-19T05:10:57;8.18;;;2.28;;
13404;SDS011;6773;51.192;7.024;2023-09-19T05:13:23;5.07;;;2.30;;
13404;SDS011;6773;51.192;7.024;2023-09-19T05:15:49;7.45;;;2.63;;
13404;SDS011;6773;51.192;7.024;2023-09-19T05:18:16;8.15;;;2.53;;
13404;SDS011;6773;51.192;7.024;2023-09-19T05:20:42;7.13;;;2.70;;
13404;SDS011;6773;51.192;7.024;2023-09-19T05:23:08;7.47;;;2.50;;
13404;SDS011;6773;51.192;7.024;2023-09-19T05:25:37;7.55;;;2.80;;
13404;SDS011;6773;51.192;7.024;2023-09-19T05:28:07;7.00;;;2.30;;
13404;SDS011;6773;51.192;7.024;2023-09-19T05:30:37;8.23;;;2.67;;
13404;SDS011;6773;51.192;7.024;2023-09-19T05:33:03;7.37;;;2.87;;
13404;SDS011;6773;51.192;7.024;2023-09-19T05:35:30;12.03;;;3.17;;
13404;SDS011;6773;51.192;7.024;2023-09-19T05:37:56;13.83;;;3.13;;
13404;SDS011;6773;51.192;7.024;2023-09-19T05:40:23;7.60;;;2.37;;
13404;SDS011;6773;51.192;7.024;2023-09-19T05:42:49;7.07;;;2.60;;
13404;SDS011;6773;51.192;7.024;2023-09-19T05:45:18;10.27;;;2.73;;
13404;SDS011;6773;51.192;7.024;2023-09-19T05:47:47;6.13;;;2.57;;
13404;SDS011;6773;51.192;7.024;2023-09-19T05:50:16;10.73;;;3.00;;
13404;SDS011;6773;51.192;7.024;2023-09-19T05:52:43;7.10;;;2.50;;
13404;SDS011;6773;51.192;7.024;2023-09-19T05:55:17;9.00;;;2.97;;
13404;SDS011;6773;51.192;7.024;2023-09-19T05:57:42;7.73;;;2.70;;
13404;SDS011;6773;51.192;7.024;2023-09-19T06:00:09;10.70;;;3.37;;
13404;SDS011;6773;51.192;7.024;2023-09-19T06:02:36;9.10;;;2.73;;
13404;SDS011;6773;51.192;7.024;2023-09-19T06:05:03;6.83;;;3.00;;
13404;SDS011;6773;51.192;7.024;2023-09-19T06:07:31;9.53;;;2.60;;
13404;SDS011;6773;51.192;7.024;2023-09-19T06:10:03;7.13;;;3.20;;
13404;SDS011;6773;51.192;7.024;2023-09-19T06:12:31;11.70;;;3.40;;
13404;SDS011;6773;51.192;7.024;2023-09-19T06:14:58;10.87;;;3.17;;
13404;SDS011;6773;51.192;7.024;2023-09-19T06:17:24;9.57;;;2.67;;
13404;SDS011;6773;51.192;7.024;2023-09-19T06:19:52;8.90;;;2.73;;
13404;SDS011;6773;51.192;7.024;2023-09-19T06:22:17;8.73;;;2.87;;
13404;SDS011;6773;51.192;7.024;2023-09-19T06:24:43;10.83;;;2.93;;
13404;SDS011;6773;51.192;7.024;2023-09-19T06:27:10;10.80;;;2.67;;
13404;SDS011;6773;51.192;7.024;2023-09-19T06:29:36;6.27;;;2.70;;
13404;SDS011;6773;51.192;7.024;2023-09-19T06:32:06;9.13;;;3.30;;
13404;SDS011;6773;51.192;7.024;2023-09-19T06:34:33;7.13;;;2.50;;
13404;SDS011;6773;51.192;7.024;2023-09-19T06:36:59;7.90;;;2.60;;
13404;SDS011;6773;51.192;7.024;2023-09-19T06:39:25;8.90;;;2.70;;
13404;SDS011;6773;51.192;7.024;2023-09-19T06:41:51;9.10;;;2.70;;
13404;SDS011;6773;51.192;7.024;2023-09-19T06:44:20;13.57;;;2.80;;
13404;SDS011;6773;51.192;7.024;2023-09-19T06:46:49;7.87;;;2.27;;
13404;SDS011;6773;51.192;7.024;2023-09-19T06:49:16;8.67;;;2.63;;
13404;SDS011;6773;51.192;7.024;2023-09-19T06:51:42;11.23;;;3.30;;
13404;SDS011;6773;51.192;7.024;2023-09-19T06:54:08;8.57;;;2.30;;
13404;SDS011;6773;51.192;7.024;2023-09-19T06:56:34;11.37;;;3.40;;
13404;SDS011;6773;51.192;7.024;2023-09-19T06:59:00;11.37;;;2.63;;
13404;SDS011;6773;51.192;7.024;2023-09-19T07:01:27;6.47;;;2.37;;
13404;SDS011;6773;51.192;7.024;2023-09-19T07:03:53;9.47;;;2.90;;
13404;SDS011;6773;51.192;7.024;2023-09-19T07:06:19;9.03;;;2.60;;
13404;SDS011;6773;51.192;7.024;2023-09-19T07:08:45;11.30;;;2.97;;
13404;SDS011;6773;51.192;7.024;2023-09-19T07:11:11;12.17;;;3.37;;
13404;SDS011;6773;51.192;7.024;2023-09-19T07:13:40;13.07;;;3.27;;
13404;SDS011;6773;51.192;7.024;2023-09-19T07:16:06;8.57;;;2.53;;
13404;SDS011;6773;51.192;7.024;2023-09-19T07:18:35;5.77;;;2.67;;
13404;SDS011;6773;51.192;7.024;2023-09-19T07:21:01;9.03;;;2.77;;
13404;SDS011;6773;51.192;7.024;2023-09-19T07:23:30;7.53;;;2.63;;
13404;SDS011;6773;51.192;7.024;2023-09-19T07:26:00;8.80;;;2.53;;
13404;SDS011;6773;51.192;7.024;2023-09-19T07:28:26;10.60;;;2.80;;
13404;SDS011;6773;51.192;7.024;2023-09-19T07:30:53;10.53;;;3.70;;
13404;SDS011;6773;51.192;7.024;2023-09-19T07:33:19;5.93;;;2.60;;
13404;SDS011;6773;51.192;7.024;2023-09-19T07:35:45;9.70;;;2.80;;
13404;SDS011;6773;51.192;7.024;2023-09-19T07:38:12;9.57;;;3.10;;
13404;SDS011;6773;51.192;7.024;2023-09-19T07:40:38;9.00;;;2.83;;
13404;SDS011;6773;51.192;7.024;2023-09-19T07:43:04;7.47;;;2.50;;
13404;SDS011;6773;51.192;7.024;2023-09-19T07:45:31;9.90;;;3.20;;
13404;SDS011;6773;51.192;7.024;2023-09-19T07:47:58;7.87;;;2.97;;
13404;SDS011;6773;51.192;7.024;2023-09-19T07:50:26;10.77;;;2.30;;
13404;SDS011;6773;51.192;7.024;2023-09-19T07:52:52;8.77;;;2.77;;
13404;SDS011;6773;51.192;7.024;2023-09-19T07:55:18;9.97;;;2.73;;
13404;SDS011;6773;51.192;7.024;2023-09-19T07:57:48;10.77;;;2.97;;
13404;SDS011;6773;51.192;7.024;2023-09-19T08:00:14;7.87;;;2.67;;
13404;SDS011;6773;51.192;7.024;2023-09-19T08:02:40;11.53;;;2.80;;
13404;SDS011;6773;51.192;7.024;2023-09-19T08:05:07;8.50;;;2.53;;
13404;SDS011;6773;51.192;7.024;2023-09-19T08:07:40;9.97;;;2.70;;
13404;SDS011;6773;51.192;7.024;2023-09-19T08:10:07;8.50;;;2.53;;
13404;SDS011;6773;51.192;7.024;2023-09-19T08:12:33;5.57;;;2.53;;
13404;SDS011;6773;51.192;7.024;2023-09-19T08:15:01;10.80;;;3.03;;
13404;SDS011;6773;51.192;7.024;2023-09-19T08:17:34;8.73;;;2.67;;
13404;SDS011;6773;51.192;7.024;2023-09-19T08:20:00;9.23;;;2.70;;
13404;SDS011;6773;51.192;7.024;2023-09-19T08:22:28;11.13;;;2.55;;
13404;SDS011;6773;51.192;7.024;2023-09-19T08:24:53;6.97;;;2.38;;
13404;SDS011;6773;51.192;7.024;2023-09-19T08:27:19;11.70;;;3.23;;
13404;SDS011;6773;51.192;7.024;2023-09-19T08:29:45;13.23;;;3.30;;
13404;SDS011;6773;51.192;7.024;2023-09-19T08:32:11;5.60;;;2.60;;
13404;SDS011;6773;51.192;7.024;2023-09-19T08:34:37;7.27;;;2.73;;
13404;SDS011;6773;51.192;7.024;2023-09-19T08:37:03;5.47;;;2.10;;
13404;SDS011;6773;51.192;7.024;2023-09-19T08:39:29;10.77;;;2.80;;
13404;SDS011;6773;51.192;7.024;2023-09-19T08:41:58;9.03;;;3.27;;
13404;SDS011;6773;51.192;7.024;2023-09-19T08:44:24;7.72;;;2.60;;
13404;SDS011;6773;51.192;7.024;2023-09-19T08:46:52;8.32;;;2.42;;
13404;SDS011;6773;51.192;7.024;2023-09-19T08:52:27;11.38;;;2.58;;
13404;SDS011;6773;51.192;7.024;2023-09-19T08:55:01;8.40;;;2.13;;
13404;SDS011;6773;51.192;7.024;2023-09-19T08:57:35;10.13;;;2.65;;
13404;SDS011;6773;51.192;7.024;2023-09-19T09:00:06;9.25;;;2.40;;
13404;SDS011;6773;51.192;7.024;2023-09-19T09:02:39;7.10;;;2.72;;
13404;SDS011;6773;51.192;7.024;2023-09-19T09:05:08;8.45;;;2.50;;
13404;SDS011;6773;51.192;7.024;2023-09-19T09:07:38;9.15;;;3.00;;
13404;SDS011;6773;51.192;7.024;2023-09-19T09:10:05;8.68;;;2.30;;
13404;SDS011;6773;51.192;7.024;2023-09-19T09:12:32;9.02;;;2.92;;
13404;SDS011;6773;51.192;7.024;2023-09-19T09:15:01;9.25;;;2.90;;
13404;SDS011;6773;51.192;7.024;2023-09-19T09:17:28;8.85;;;2.65;;
13404;SDS011;6773;51.192;7.024;2023-09-19T09:19:54;8.27;;;2.63;;
13404;SDS011;6773;51.192;7.024;2023-09-19T09:22:20;10.13;;;2.42;;
13404;SDS011;6773;51.192;7.024;2023-09-19T09:24:53;8.32;;;2.90;;
13404;SDS011;6773;51.192;7.024;2023-09-19T09:27:19;9.63;;;2.95;;
13404;SDS011;6773;51.192;7.024;2023-09-19T09:29:49;5.90;;;2.38;;
13404;SDS011;6773;51.192;7.024;2023-09-19T09:32:19;7.40;;;2.50;;
13404;SDS011;6773;51.192;7.024;2023-09-19T09:34:47;6.28;;;2.28;;
13404;SDS011;6773;51.192;7.024;2023-09-19T09:37:19;6.20;;;2.13;;
13404;SDS011;6773;51.192;7.024;2023-09-19T09:39:51;8.88;;;2.30;;
13404;SDS011;6773;51.192;7.024;2023-09-19T09:42:35;11.57;;;3.13;;
13404;SDS011;6773;51.192;7.024;2023-09-19T09:47:57;8.30;;;2.53;;
13404;SDS011;6773;51.192;7.024;2023-09-19T09:50:29;5.32;;;2.10;;
13404;SDS011;6773;51.192;7.024;2023-09-19T09:53:21;7.63;;;2.70;;
13404;SDS011;6773;51.192;7.024;2023-09-19T09:58:34;8.93;;;2.58;;
13404;SDS011;6773;51.192;7.024;2023-09-19T10:01:13;8.05;;;2.50;;
13404;SDS011;6773;51.192;7.024;2023-09-19T10:03:41;6.00;;;2.05;;
13404;SDS011;6773;51.192;7.024;2023-09-19T10:06:15;8.45;;;2.20;;
13404;SDS011;6773;51.192;7.024;2023-09-19T10:09:06;8.18;;;2.22;;
13404;SDS011;6773;51.192;7.024;2023-09-19T10:14:10;5.32;;;2.20;;
13404;SDS011;6773;51.192;7.024;2023-09-19T10:16:41;8.85;;;2.28;;
13404;SDS011;6773;51.192;7.024;2023-09-19T10:19:12;6.60;;;2.20;;
13404;SDS011;6773;51.192;7.024;2023-09-19T10:21:43;5.07;;;2.03;;
13404;SDS011;6773;51.192;7.024;2023-09-19T10:24:10;7.38;;;2.33;;
13404;SDS011;6773;51.192;7.024;2023-09-19T10:26:36;8.82;;;2.35;;
13404;SDS011;6773;51.192;7.024;2023-09-19T10:29:05;6.55;;;2.35;;
13404;SDS011;6773;51.192;7.024;2023-09-19T10:31:32;5.90;;;2.33;;
13404;SDS011;6773;51.192;7.024;2023-09-19T10:34:00;5.70;;;2.30;;
13404;SDS011;6773;51.192;7.024;2023-09-19T10:36:30;4.65;;;2.35;;
13404;SDS011;6773;51.192;7.024;2023-09-19T10:39:00;6.03;;;2.35;;
13404;SDS011;6773;51.192;7.024;2023-09-19T10:41:31;4.53;;;1.95;;
13404;SDS011;6773;51.192;7.024;2023-09-19T10:43:59;7.43;;;2.10;;
13404;SDS011;6773;51.192;7.024;2023-09-19T10:46:31;4.53;;;1.98;;
13404;SDS011;6773;51.192;7.024;2023-09-19T10:49:01;6.28;;;2.55;;
13404;SDS011;6773;51.192;7.024;2023-09-19T10:51:31;5.63;;;2.22;;
13404;SDS011;6773;51.192;7.024;2023-09-19T10:54:11;6.05;;;2.42;;
13404;SDS011;6773;51.192;7.024;2023-09-19T10:56:42;5.63;;;2.05;;
13404;SDS011;6773;51.192;7.024;2023-09-19T10:59:13;10.98;;;2.55;;
13404;SDS011;6773;51.192;7.024;2023-09-19T11:01:59;6.22;;;2.17;;
13404;SDS011;6773;51.192;7.024;2023-09-19T11:04:40;7.22;;;2.30;;
13404;SDS011;6773;51.192;7.024;2023-09-19T11:07:06;7.57;;;2.17;;
13404;SDS011;6773;51.192;7.024;2023-09-19T11:09:53;4.80;;;2.05;;
13404;SDS011;6773;51.192;7.024;2023-09-19T11:15:02;6.65;;;2.35;;
13404;SDS011;6773;51.192;7.024;2023-09-19T11:30:47;7.00;;;2.20;;
13404;SDS011;6773;51.192;7.024;2023-09-19T11:36:01;5.88;;;2.40;;
13404;SDS011;6773;51.192;7.024;2023-09-19T11:43:50;6.38;;;2.42;;
13404;SDS011;6773;51.192;7.024;2023-09-19T11:49:25;5.10;;;2.40;;
13404;SDS011;6773;51.192;7.024;2023-09-19T11:51:57;6.15;;;2.42;;
13404;SDS011;6773;51.192;7.024;2023-09-19T11:54:26;4.03;;;1.92;;
13404;SDS011;6773;51.192;7.024;2023-09-19T11:56:57;6.53;;;2.28;;
13404;SDS011;6773;51.192;7.024;2023-09-19T11:59:24;5.38;;;2.58;;
13404;SDS011;6773;51.192;7.024;2023-09-19T12:01:56;5.03;;;2.25;;
13404;SDS011;6773;51.192;7.024;2023-09-19T12:04:39;6.95;;;2.60;;
13404;SDS011;6773;51.192;7.024;2023-09-19T12:07:12;5.10;;;1.90;;
13404;SDS011;6773;51.192;7.024;2023-09-19T12:09:42;6.50;;;2.33;;
13404;SDS011;6773;51.192;7.024;2023-09-19T12:12:18;6.35;;;2.10;;
13404;SDS011;6773;51.192;7.024;2023-09-19T12:14:48;6.75;;;2.05;;
13404;SDS011;6773;51.192;7.024;2023-09-19T12:17:15;6.20;;;1.80;;
13404;SDS011;6773;51.192;7.024;2023-09-19T12:19:52;5.82;;;2.03;;
13404;SDS011;6773;51.192;7.024;2023-09-19T12:22:18;4.93;;;2.25;;
13404;SDS011;6773;51.192;7.024;2023-09-19T12:24:45;5.32;;;2.10;;
13404;SDS011;6773;51.192;7.024;2023-09-19T12:27:12;6.65;;;2.08;;
13404;SDS011;6773;51.192;7.024;2023-09-19T12:29:56;3.45;;;2.10;;
13404;SDS011;6773;51.192;7.024;2023-09-19T12:32:36;4.97;;;1.92;;
13404;SDS011;6773;51.192;7.024;2023-09-19T12:35:05;4.35;;;2.08;;
13404;SDS011;6773;51.192;7.024;2023-09-19T12:37:36;7.00;;;1.88;;
13404;SDS011;6773;51.192;7.024;2023-09-19T12:40:08;4.07;;;2.08;;
13404;SDS011;6773;51.192;7.024;2023-09-19T12:42:47;4.90;;;2.22;;
13404;SDS011;6773;51.192;7.024;2023-09-19T12:45:14;4.05;;;2.00;;
13404;SDS011;6773;51.192;7.024;2023-09-19T12:51:00;3.63;;;1.90;;
13404;SDS011;6773;51.192;7.024;2023-09-19T12:53:35;5.90;;;2.38;;
13404;SDS011;6773;51.192;7.024;2023-09-19T12:56:07;3.78;;;2.03;;
13404;SDS011;6773;51.192;7.024;2023-09-19T12:58:47;7.25;;;2.03;;
13404;SDS011;6773;51.192;7.024;2023-09-19T13:01:14;4.03;;;1.90;;
13404;SDS011;6773;51.192;7.024;2023-09-19T13:03:41;4.10;;;1.80;;
13404;SDS011;6773;51.192;7.024;2023-09-19T13:06:07;9.30;;;2.45;;
13404;SDS011;6773;51.192;7.024;2023-09-19T13:08:35;4.03;;;1.98;;
13404;SDS011;6773;51.192;7.024;2023-09-19T13:13:38;3.45;;;1.70;;
13404;SDS011;6773;51.192;7.024;2023-09-19T13:16:14;3.30;;;1.77;;
13404;SDS011;6773;51.192;7.024;2023-09-19T13:18:44;4.40;;;1.90;;
13404;SDS011;6773;51.192;7.024;2023-09-19T13:21:12;4.13;;;1.63;;
13404;SDS011;6773;51.192;7.024;2023-09-19T13:23:50;2.40;;;1.50;;
13404;SDS011;6773;51.192;7.024;2023-09-19T13:26:17;3.92;;;1.48;;
13404;SDS011;6773;51.192;7.024;2023-09-19T13:28:43;3.67;;;1.50;;
13404;SDS011;6773;51.192;7.024;2023-09-19T13:31:09;4.93;;;1.70;;
13404;SDS011;6773;51.192;7.024;2023-09-19T13:33:45;4.43;;;1.98;;
13404;SDS011;6773;51.192;7.024;2023-09-19T13:36:12;3.80;;;1.33;;
13404;SDS011;6773;51.192;7.024;2023-09-19T13:38:41;4.07;;;1.67;;
13404;SDS011;6773;51.192;7.024;2023-09-19T13:41:08;3.47;;;1.60;;
13404;SDS011;6773;51.192;7.024;2023-09-19T13:43:37;6.00;;;1.95;;
13404;SDS011;6773;51.192;7.024;2023-09-19T13:46:03;4.63;;;1.60;;
13404;SDS011;6773;51.192;7.024;2023-09-19T13:48:30;2.10;;;1.60;;
13404;SDS011;6773;51.192;7.024;2023-09-19T13:50:56;2.70;;;1.45;;
13404;SDS011;6773;51.192;7.024;2023-09-19T13:53:22;3.85;;;1.40;;
13404;SDS011;6773;51.192;7.024;2023-09-19T13:55:48;5.15;;;1.67;;
13404;SDS011;6773;51.192;7.024;2023-09-19T13:58:14;2.88;;;1.40;;
13404;SDS011;6773;51.192;7.024;2023-09-19T14:00:40;5.90;;;1.67;;
13404;SDS011;6773;51.192;7.024;2023-09-19T14:03:05;4.13;;;1.55;;
13404;SDS011;6773;51.192;7.024;2023-09-19T14:05:31;3.67;;;1.30;;
13404;SDS011;6773;51.192;7.024;2023-09-19T14:07:57;3.78;;;1.40;;
13404;SDS011;6773;51.192;7.024;2023-09-19T14:10:28;3.38;;;1.67;;
13404;SDS011;6773;51.192;7.024;2023-09-19T14:12:56;5.35;;;1.38;;
13404;SDS011;6773;51.192;7.024;2023-09-19T14:15:24;2.05;;;1.20;;
13404;SDS011;6773;51.192;7.024;2023-09-19T14:17:55;3.42;;;1.38;;
13404;SDS011;6773;51.192;7.024;2023-09-19T14:20:24;5.13;;;1.60;;
13404;SDS011;6773;51.192;7.024;2023-09-19T14:22:51;1.77;;;1.10;;
13404;SDS011;6773;51.192;7.024;2023-09-19T14:25:17;3.25;;;1.40;;
13404;SDS011;6773;51.192;7.024;2023-09-19T14:27:43;2.45;;;1.30;;
13404;SDS011;6773;51.192;7.024;2023-09-19T14:30:09;1.85;;;1.10;;
13404;SDS011;6773;51.192;7.024;2023-09-19T14:32:35;4.47;;;1.50;;
13404;SDS011;6773;51.192;7.024;2023-09-19T14:35:01;1.25;;;1.15;;
13404;SDS011;6773;51.192;7.024;2023-09-19T14:37:27;2.63;;;1.40;;
13404;SDS011;6773;51.192;7.024;2023-09-19T14:39:53;1.90;;;1.27;;
13404;SDS011;6773;51.192;7.024;2023-09-19T14:42:19;4.55;;;1.20;;
13404;SDS011;6773;51.192;7.024;2023-09-19T14:44:45;4.82;;;1.30;;
13404;SDS011;6773;51.192;7.024;2023-09-19T14:47:13;2.53;;;1.67;;
13404;SDS011;6773;51.192;7.024;2023-09-19T14:49:39;3.28;;;1.55;;
13404;SDS011;6773;51.192;7.024;2023-09-19T14:52:07;6.03;;;1.30;;
13404;SDS011;6773;51.192;7.024;2023-09-19T14:54:33;1.88;;;1.30;;
13404;SDS011;6773;51.192;7.024;2023-09-19T14:57:00;5.45;;;1.40;;
13404;SDS011;6773;51.192;7.024;2023-09-19T14:59:33;4.47;;;1.33;;
13404;SDS011;6773;51.192;7.024;2023-09-19T15:02:02;3.88;;;1.00;;
13404;SDS011;6773;51.192;7.024;2023-09-19T15:04:30;3.95;;;1.40;;
13404;SDS011;6773;51.192;7.024;2023-09-19T15:06:56;5.28;;;1.40;;
13404;SDS011;6773;51.192;7.024;2023-09-19T15:09:23;5.15;;;1.48;;
13404;SDS011;6773;51.192;7.024;2023-09-19T15:11:51;3.72;;;1.35;;
13404;SDS011;6773;51.192;7.024;2023-09-19T15:14:17;3.15;;;1.20;;
13404;SDS011;6773;51.192;7.024;2023-09-19T15:16:43;1.60;;;1.30;;
13404;SDS011;6773;51.192;7.024;2023-09-19T15:19:09;2.95;;;1.30;;
13404;SDS011;6773;51.192;7.024;2023-09-19T15:21:37;3.70;;;1.30;;
13404;SDS011;6773;51.192;7.024;2023-09-19T15:24:03;3.45;;;1.40;;
13404;SDS011;6773;51.192;7.024;2023-09-19T15:26:30;1.80;;;1.40;;
13404;SDS011;6773;51.192;7.024;2023-09-19T15:28:56;2.90;;;1.42;;
13404;SDS011;6773;51.192;7.024;2023-09-19T15:31:21;3.90;;;1.55;;
13404;SDS011;6773;51.192;7.024;2023-09-19T15:33:47;2.35;;;1.30;;
13404;SDS011;6773;51.192;7.024;2023-09-19T15:36:14;2.97;;;1.52;;
13404;SDS011;6773;51.192;7.024;2023-09-19T15:41:39;4.97;;;1.52;;
13404;SDS011;6773;51.192;7.024;2023-09-19T15:44:12;3.42;;;1.30;;
13404;SDS011;6773;51.192;7.024;2023-09-19T15:46:40;5.22;;;1.55;;
13404;SDS011;6773;51.192;7.024;2023-09-19T15:49:06;4.88;;;1.35;;
13404;SDS011;6773;51.192;7.024;2023-09-19T15:51:32;1.80;;;1.10;;
13404;SDS011;6773;51.192;7.024;2023-09-19T15:53:58;2.25;;;1.20;;
13404;SDS011;6773;51.192;7.024;2023-09-19T15:56:28;1.73;;;1.33;;
13404;SDS011;6773;51.192;7.024;2023-09-19T15:58:54;4.25;;;1.67;;
13404;SDS011;6773;51.192;7.024;2023-09-19T16:01:21;1.63;;;1.10;;
13404;SDS011;6773;51.192;7.024;2023-09-19T16:03:48;3.92;;;1.70;;
13404;SDS011;6773;51.192;7.024;2023-09-19T16:06:17;5.10;;;1.30;;
13404;SDS011;6773;51.192;7.024;2023-09-19T16:08:45;2.25;;;1.33;;
13404;SDS011;6773;51.192;7.024;2023-09-19T16:11:12;2.60;;;1.27;;
13404;SDS011;6773;51.192;7.024;2023-09-19T16:13:39;4.35;;;1.40;;